Time;durP1;ratioP1;P1;durP2;ratioP2;P2;SDS_P1;SDS_P2;PMS_P1;PMS_P2;Temp;Humidity;BMP_temperature;BMP_pressure;BME280_temperature;BME280_humidity;BME280_pressure;Samples;Min_cycle;Max_cycle;Signal;HPM_P1;HPM_P2
2023/06/18 00:00:18;;;;;;;8.90;3.63;;;14.30;90.90;;;;;;5027731;28;20201;-73
2023/06/18 00:02:44;;;;;;;6.80;3.90;;;14.20;90.80;;;;;;5026873;28;20289;-73
2023/06/18 00:05:09;;;;;;;7.70;3.90;;;14.20;90.90;;;;;;5031181;28;20270;-73
2023/06/18 00:07:35;;;;;;;7.00;3.53;;;14.30;90.90;;;;;;5029594;28;20186;-73
2023/06/18 00:10:03;;;;;;;8.33;3.53;;;14.30;90.80;;;;;;5028691;28;20220;-73
2023/06/18 00:12:28;;;;;;;9.20;4.00;;;14.30;90.90;;;;;;5030106;28;20202;-73
2023/06/18 00:14:54;;;;;;;6.40;2.97;;;14.20;90.90;;;;;;5029374;28;20444;-73
2023/06/18 00:17:21;;;;;;;7.97;3.10;;;14.20;91.10;;;;;;5025159;28;21108;-73
2023/06/18 00:19:46;;;;;;;5.83;3.30;;;14.10;91.00;;;;;;5030507;28;20178;-73
2023/06/18 00:22:14;;;;;;;7.00;3.57;;;14.10;91.20;;;;;;5032426;28;20726;-73
2023/06/18 00:24:40;;;;;;;5.07;2.67;;;14.10;91.20;;;;;;5029953;28;20190;-73
2023/06/18 00:27:06;;;;;;;4.60;3.03;;;14.00;91.30;;;;;;5030464;28;20765;-73
2023/06/18 00:29:31;;;;;;;8.60;2.70;;;14.00;90.90;;;;;;5029603;28;20212;-73
2023/06/18 00:31:57;;;;;;;5.43;2.63;;;14.00;91.10;;;;;;5029654;28;20266;-73
2023/06/18 00:34:28;;;;;;;8.27;3.30;;;14.00;91.10;;;;;;5030364;28;20214;-73
2023/06/18 00:36:54;;;;;;;8.07;3.50;;;14.00;91.20;;;;;;5030184;28;20209;-73
2023/06/18 00:39:20;;;;;;;6.20;3.07;;;13.90;91.60;;;;;;5030012;28;20503;-73
2023/06/18 00:41:46;;;;;;;6.50;3.23;;;13.90;91.80;;;;;;5028864;28;20183;-73
2023/06/18 00:44:12;;;;;;;11.30;2.93;;;13.80;91.90;;;;;;5026833;28;20186;-73
2023/06/18 00:46:39;;;;;;;8.63;3.23;;;13.80;92.10;;;;;;5028351;28;20500;-73
2023/06/18 00:49:05;;;;;;;5.60;2.30;;;13.70;92.30;;;;;;5028170;28;20441;-73
2023/06/18 00:51:31;;;;;;;5.77;3.17;;;13.60;92.40;;;;;;5026974;28;20455;-73
2023/06/18 00:53:56;;;;;;;6.63;3.50;;;13.60;92.70;;;;;;5028508;28;20714;-73
2023/06/18 00:56:25;;;;;;;5.60;3.57;;;13.60;92.80;;;;;;5023464;28;20520;-73
2023/06/18 00:58:51;;;;;;;6.20;3.60;;;13.60;92.80;;;;;;5033366;28;20214;-74
2023/06/18 01:01:17;;;;;;;8.60;3.53;;;13.60;92.70;;;;;;5025064;28;20440;-73
2023/06/18 01:03:47;;;;;;;16.40;4.13;;;13.50;92.80;;;;;;5034120;28;20498;-73
2023/06/18 01:06:17;;;;;;;10.33;4.07;;;13.50;93.20;;;;;;5033815;28;20186;-73
2023/06/18 01:08:48;;;;;;;7.03;3.70;;;13.50;93.40;;;;;;5025962;28;20560;-73
2023/06/18 01:11:18;;;;;;;5.83;3.40;;;13.40;93.50;;;;;;5031739;28;20523;-73
2023/06/18 01:13:44;;;;;;;10.87;4.00;;;13.40;93.80;;;;;;5033162;28;20441;-73
2023/06/18 01:16:11;;;;;;;5.50;2.77;;;13.40;93.90;;;;;;5032439;28;20807;-73
2023/06/18 01:18:46;;;;;;;9.90;3.20;;;13.40;93.40;;;;;;5025682;28;20484;-73
2023/06/18 01:21:19;;;;;;;5.40;2.80;;;13.40;93.70;;;;;;5018867;28;20436;-73
2023/06/18 01:24:11;;;;;;;9.60;4.00;;;13.40;93.90;;;;;;5033249;28;20416;-73
2023/06/18 01:26:38;;;;;;;6.67;3.77;;;13.30;94.00;;;;;;5032091;28;20429;-73
2023/06/18 01:29:09;;;;;;;5.20;3.50;;;13.30;94.50;;;;;;5046687;28;20423;-73
2023/06/18 01:31:36;;;;;;;5.00;3.50;;;13.20;94.60;;;;;;5032381;28;20499;-73
2023/06/18 01:34:04;;;;;;;7.20;3.60;;;13.20;94.50;;;;;;5032426;28;20439;-73
2023/06/18 01:36:37;;;;;;;5.23;2.80;;;13.20;94.70;;;;;;5032754;28;20491;-73
2023/06/18 01:39:11;;;;;;;5.23;3.13;;;13.00;94.70;;;;;;5032378;28;20524;-73
2023/06/18 01:41:40;;;;;;;10.67;4.30;;;13.00;94.80;;;;;;5032257;28;20429;-73
2023/06/18 01:44:12;;;;;;;10.20;3.17;;;13.00;95.10;;;;;;5032489;28;20752;-73
2023/06/18 01:46:40;;;;;;;8.30;3.67;;;13.00;95.10;;;;;;5032292;28;20429;-73
2023/06/18 01:49:07;;;;;;;8.43;3.97;;;12.90;95.30;;;;;;5036307;28;20414;-73
2023/06/18 01:51:35;;;;;;;6.10;3.63;;;12.90;95.50;;;;;;5032828;28;20812;-73
2023/06/18 01:54:03;;;;;;;8.67;3.80;;;12.90;95.40;;;;;;5025551;28;20890;-73
2023/06/18 01:56:29;;;;;;;8.80;4.83;;;12.90;96.10;;;;;;5032772;28;20417;-73
2023/06/18 01:58:56;;;;;;;8.90;3.80;;;12.80;95.80;;;;;;5033043;28;20942;-73
2023/06/18 02:01:22;;;;;;;6.10;3.23;;;12.80;95.80;;;;;;5025793;28;20445;-73
2023/06/18 02:03:47;;;;;;;10.67;4.30;;;12.80;95.90;;;;;;5033842;28;20439;-73
2023/06/18 02:06:13;;;;;;;8.50;3.70;;;12.80;95.80;;;;;;5034994;28;20417;-73
2023/06/18 02:08:39;;;;;;;7.03;3.10;;;13.00;96.00;;;;;;5041776;28;20186;-73
2023/06/18 02:11:05;;;;;;;5.73;2.93;;;12.80;95.90;;;;;;5026100;28;20690;-73
2023/06/18 02:13:30;;;;;;;8.57;4.20;;;12.80;96.40;;;;;;5032442;28;20174;-72
2023/06/18 02:15:56;;;;;;;6.10;3.60;;;12.70;96.60;;;;;;5032319;28;20301;-72
2023/06/18 02:18:21;;;;;;;6.37;2.93;;;12.80;96.80;;;;;;5031843;28;20295;-72
2023/06/18 02:20:47;;;;;;;5.17;3.57;;;12.70;97.20;;;;;;5030997;28;20198;-72
2023/06/18 02:23:13;;;;;;;5.60;3.70;;;12.60;97.10;;;;;;5032408;28;20616;-72
2023/06/18 02:25:39;;;;;;;5.40;3.20;;;12.60;97.10;;;;;;5031729;28;20666;-72
2023/06/18 02:28:06;;;;;;;6.47;3.20;;;12.60;97.40;;;;;;5035909;28;20182;-72
2023/06/18 02:30:33;;;;;;;5.47;3.70;;;12.60;97.60;;;;;;5031529;28;20183;-72
2023/06/18 02:33:01;;;;;;;4.93;2.93;;;12.60;97.90;;;;;;5032447;28;20830;-72
2023/06/18 02:35:27;;;;;;;6.47;3.53;;;12.60;98.00;;;;;;5032331;28;20449;-72
2023/06/18 02:37:54;;;;;;;7.07;3.93;;;12.60;97.90;;;;;;5032440;28;20535;-71
2023/06/18 02:40:20;;;;;;;5.57;3.10;;;12.60;98.30;;;;;;5030654;28;20519;-72
2023/06/18 02:42:48;;;;;;;8.57;3.77;;;12.50;98.20;;;;;;5030997;28;20528;-71
2023/06/18 02:45:19;;;;;;;5.57;3.27;;;12.60;98.00;;;;;;5033286;28;20183;-72
2023/06/18 02:47:46;;;;;;;15.20;3.60;;;12.60;97.80;;;;;;5034202;28;20444;-71
2023/06/18 02:50:12;;;;;;;9.90;4.57;;;12.60;97.80;;;;;;5031384;28;20424;-72
2023/06/18 02:52:39;;;;;;;9.07;3.77;;;12.60;97.60;;;;;;5031685;28;20924;-72
2023/06/18 02:55:06;;;;;;;6.80;3.20;;;12.50;98.10;;;;;;5031316;28;21103;-71
2023/06/18 02:57:32;;;;;;;6.13;3.70;;;12.50;98.20;;;;;;5031268;28;20457;-71
2023/06/18 02:59:58;;;;;;;9.40;4.53;;;12.50;98.30;;;;;;5030937;28;20475;-72
2023/06/18 03:02:23;;;;;;;7.80;3.13;;;12.50;98.70;;;;;;5031446;28;20186;-71
2023/06/18 03:04:50;;;;;;;5.47;3.23;;;12.40;98.80;;;;;;5031126;28;20197;-72
2023/06/18 03:07:15;;;;;;;21.97;4.50;;;12.30;98.70;;;;;;5031582;28;20281;-71
2023/06/18 03:09:41;;;;;;;6.90;3.10;;;12.30;98.90;;;;;;5030663;28;20452;-71
2023/06/18 03:12:07;;;;;;;8.07;4.30;;;12.30;99.10;;;;;;5030221;28;20186;-71
2023/06/18 03:14:32;;;;;;;5.60;2.93;;;12.30;99.20;;;;;;5030585;28;20194;-71
2023/06/18 03:16:58;;;;;;;6.20;3.27;;;12.30;99.30;;;;;;5030902;28;20634;-71
2023/06/18 03:19:24;;;;;;;6.40;3.60;;;12.30;99.40;;;;;;5030217;28;20178;-71
2023/06/18 03:21:50;;;;;;;8.30;2.97;;;12.30;99.50;;;;;;5030615;28;20416;-72
2023/06/18 03:24:15;;;;;;;5.70;3.70;;;12.30;99.40;;;;;;5030930;28;20205;-71
2023/06/18 03:26:43;;;;;;;5.23;3.43;;;12.30;99.60;;;;;;5030057;28;20673;-71
2023/06/18 03:29:08;;;;;;;9.23;3.97;;;12.30;99.60;;;;;;5031280;28;20556;-72
2023/06/18 03:31:35;;;;;;;9.87;3.97;;;12.30;99.80;;;;;;5030448;28;20447;-71
2023/06/18 03:34:01;;;;;;;4.90;3.30;;;12.30;99.30;;;;;;5031212;28;20178;-71
2023/06/18 03:36:39;;;;;;;16.30;4.00;;;12.40;99.30;;;;;;5031335;28;20410;-71
2023/06/18 03:39:05;;;;;;;5.70;3.10;;;12.40;99.00;;;;;;5030673;28;20417;-71
2023/06/18 03:41:31;;;;;;;5.43;3.13;;;12.40;99.40;;;;;;5030448;28;20739;-71
2023/06/18 03:43:57;;;;;;;10.70;3.83;;;12.30;99.40;;;;;;5030876;28;20405;-71
2023/06/18 03:46:22;;;;;;;6.90;3.50;;;12.30;99.80;;;;;;5031211;28;20182;-71
2023/06/18 03:48:48;;;;;;;7.50;3.77;;;12.30;99.90;;;;;;5031229;28;20193;-72
2023/06/18 03:51:14;;;;;;;8.70;3.60;;;12.30;99.70;;;;;;5030402;28;20265;-71
2023/06/18 03:53:39;;;;;;;6.60;3.70;;;12.40;99.70;;;;;;5030791;28;20185;-72
2023/06/18 03:56:07;;;;;;;8.40;3.33;;;12.50;99.70;;;;;;5030059;28;20252;-72
2023/06/18 03:58:32;;;;;;;7.20;4.23;;;12.50;99.60;;;;;;5029185;28;20214;-72
2023/06/18 04:00:58;;;;;;;7.67;3.93;;;12.60;99.40;;;;;;5029867;28;20452;-71
2023/06/18 04:03:24;;;;;;;9.20;4.00;;;12.60;99.10;;;;;;5030653;28;20180;-71
2023/06/18 04:05:50;;;;;;;6.60;3.80;;;12.60;99.00;;;;;;5029200;28;20285;-71
2023/06/18 04:08:16;;;;;;;6.60;4.60;;;12.60;98.80;;;;;;5030325;28;20253;-71
2023/06/18 04:10:43;;;;;;;10.93;5.20;;;12.70;98.70;;;;;;5029489;28;20440;-71
2023/06/18 04:13:15;;;;;;;6.80;3.83;;;12.70;98.70;;;;;;5030691;28;20496;-71
2023/06/18 04:15:42;;;;;;;6.00;2.80;;;12.70;98.90;;;;;;5036585;28;20842;-71
2023/06/18 04:18:07;;;;;;;5.17;3.10;;;12.80;98.90;;;;;;5029472;28;20473;-71
2023/06/18 04:20:33;;;;;;;5.47;3.47;;;12.80;98.60;;;;;;5027939;28;20429;-71
2023/06/18 04:22:59;;;;;;;4.63;2.77;;;12.80;98.50;;;;;;5030476;28;20186;-71
2023/06/18 04:25:25;;;;;;;9.60;3.90;;;13.00;99.10;;;;;;5030230;28;20216;-71
2023/06/18 04:27:50;;;;;;;6.60;3.67;;;13.10;99.30;;;;;;5030303;28;20186;-71
2023/06/18 04:30:16;;;;;;;7.00;3.43;;;13.10;99.30;;;;;;5030588;28;20261;-71
2023/06/18 04:32:42;;;;;;;5.77;3.40;;;13.20;99.00;;;;;;5033141;28;20189;-71
2023/06/18 04:35:08;;;;;;;6.97;3.70;;;13.30;98.30;;;;;;5034063;28;20186;-71
2023/06/18 04:37:35;;;;;;;8.73;4.23;;;13.40;98.30;;;;;;5033700;28;20210;-71
2023/06/18 04:40:01;;;;;;;6.83;3.33;;;13.50;99.00;;;;;;5032842;28;20437;-71
2023/06/18 04:42:26;;;;;;;6.10;3.47;;;13.50;98.90;;;;;;5035228;28;20995;-71
2023/06/18 04:44:52;;;;;;;8.50;3.80;;;13.60;98.70;;;;;;5034239;28;20187;-71
2023/06/18 04:47:18;;;;;;;6.43;3.40;;;13.70;99.00;;;;;;5032975;28;20216;-71
2023/06/18 04:49:44;;;;;;;6.13;2.97;;;13.70;99.20;;;;;;5034293;28;20186;-71
2023/06/18 04:52:11;;;;;;;7.63;4.17;;;13.70;98.40;;;;;;5032861;28;20747;-71
2023/06/18 04:54:36;;;;;;;7.07;3.87;;;13.80;97.60;;;;;;5033285;28;20413;-71
2023/06/18 04:57:02;;;;;;;5.53;3.77;;;13.90;98.30;;;;;;5024832;28;20471;-71
2023/06/18 04:59:27;;;;;;;9.40;4.00;;;13.80;98.50;;;;;;5033569;28;20587;-71
2023/06/18 05:01:55;;;;;;;10.70;4.73;;;13.90;98.70;;;;;;5033124;28;20682;-71
2023/06/18 05:04:21;;;;;;;7.93;4.00;;;13.90;99.10;;;;;;5044193;28;20213;-71
2023/06/18 05:06:46;;;;;;;5.80;3.80;;;13.90;99.50;;;;;;5033577;28;20453;-70
2023/06/18 05:09:12;;;;;;;5.63;3.97;;;13.90;99.50;;;;;;5032507;28;20912;-70
2023/06/18 05:11:38;;;;;;;7.57;3.87;;;13.90;99.60;;;;;;5032782;28;20182;-71
2023/06/18 05:14:05;;;;;;;7.27;3.33;;;13.90;99.40;;;;;;5031297;28;20662;-70
2023/06/18 05:16:31;;;;;;;6.33;3.00;;;14.00;99.30;;;;;;5033882;28;20190;-71
2023/06/18 05:18:57;;;;;;;8.53;3.13;;;14.10;99.30;;;;;;5032382;28;20461;-70
2023/06/18 05:21:24;;;;;;;7.57;3.80;;;14.20;99.20;;;;;;5033304;28;20774;-71
2023/06/18 05:23:50;;;;;;;6.33;2.83;;;14.20;99.30;;;;;;5034865;28;20170;-71
2023/06/18 05:26:15;;;;;;;6.17;3.87;;;14.40;99.30;;;;;;5033221;28;20440;-71
2023/06/18 05:28:41;;;;;;;9.20;4.73;;;14.50;99.10;;;;;;5031851;28;20746;-71
2023/06/18 05:31:07;;;;;;;4.80;2.57;;;14.60;98.80;;;;;;5033039;28;20183;-71
2023/06/18 05:33:32;;;;;;;9.23;3.80;;;14.70;98.20;;;;;;5032228;28;20301;-71
2023/06/18 05:35:59;;;;;;;9.40;4.13;;;14.80;98.30;;;;;;5033138;28;20193;-71
2023/06/18 05:38:24;;;;;;;7.93;4.03;;;15.00;98.30;;;;;;5031185;28;20225;-71
2023/06/18 05:40:50;;;;;;;7.93;4.40;;;15.10;98.40;;;;;;5032356;28;20425;-71
2023/06/18 05:43:16;;;;;;;7.07;3.67;;;15.20;97.70;;;;;;5031620;28;20603;-71
2023/06/18 05:45:41;;;;;;;8.43;4.13;;;15.40;97.00;;;;;;5033225;28;20186;-71
2023/06/18 05:48:09;;;;;;;5.27;3.40;;;15.50;96.90;;;;;;5032272;28;20185;-71
2023/06/18 05:50:35;;;;;;;5.57;3.10;;;15.70;97.30;;;;;;5032524;28;20178;-71
2023/06/18 05:53:01;;;;;;;7.40;4.20;;;15.80;96.60;;;;;;5032068;28;20432;-71
2023/06/18 05:55:26;;;;;;;11.27;3.77;;;15.90;96.60;;;;;;5029785;28;20210;-71
2023/06/18 05:57:52;;;;;;;8.97;3.93;;;16.10;96.50;;;;;;5023653;28;20655;-70
2023/06/18 06:00:18;;;;;;;8.60;3.83;;;16.20;96.60;;;;;;5031537;28;20194;-71
2023/06/18 06:02:45;;;;;;;6.83;3.73;;;16.40;95.40;;;;;;5039379;28;20175;-71
2023/06/18 06:05:11;;;;;;;8.73;3.87;;;16.60;95.30;;;;;;5031382;28;20183;-71
2023/06/18 06:07:36;;;;;;;5.67;2.53;;;16.70;94.30;;;;;;5031961;28;20439;-71
2023/06/18 06:10:02;;;;;;;6.77;3.80;;;16.90;93.30;;;;;;5030582;28;20251;-71
2023/06/18 06:12:27;;;;;;;6.20;3.27;;;17.00;92.50;;;;;;5031953;28;20262;-71
2023/06/18 06:14:53;;;;;;;8.90;4.03;;;17.20;92.20;;;;;;5031536;28;20510;-71
2023/06/18 06:17:19;;;;;;;7.50;3.67;;;17.40;91.00;;;;;;5031302;28;20237;-71
2023/06/18 06:19:45;;;;;;;7.73;3.90;;;17.60;90.00;;;;;;5032451;28;20208;-71
2023/06/18 06:22:10;;;;;;;8.10;3.87;;;17.80;88.60;;;;;;5032074;28;20297;-70
2023/06/18 06:24:36;;;;;;;5.67;3.63;;;18.00;86.80;;;;;;5032017;28;20889;-71
2023/06/18 06:27:02;;;;;;;9.00;3.77;;;18.10;84.70;;;;;;5032530;28;20561;-71
2023/06/18 06:29:27;;;;;;;6.00;3.27;;;18.30;83.30;;;;;;5037160;28;20189;-72
2023/06/18 06:31:53;;;;;;;5.10;2.97;;;18.40;82.90;;;;;;5040201;28;20185;-71
2023/06/18 06:34:20;;;;;;;6.03;4.03;;;18.50;83.10;;;;;;5027868;28;20222;-71
2023/06/18 06:36:45;;;;;;;9.37;3.90;;;18.50;82.60;;;;;;5030275;28;20182;-71
2023/06/18 06:39:11;;;;;;;7.00;3.53;;;18.60;82.70;;;;;;5017415;28;20433;-71
2023/06/18 06:41:37;;;;;;;15.40;4.30;;;18.70;82.20;;;;;;5031851;28;20517;-71
2023/06/18 06:44:03;;;;;;;5.03;2.97;;;18.80;83.00;;;;;;5034773;28;20652;-71
2023/06/18 06:46:28;;;;;;;6.53;3.20;;;19.00;81.50;;;;;;5032543;28;20638;-71
2023/06/18 06:48:54;;;;;;;10.20;4.37;;;19.00;81.30;;;;;;5030677;28;20575;-71
2023/06/18 06:51:20;;;;;;;9.70;3.67;;;19.10;82.40;;;;;;5029217;28;20208;-71
2023/06/18 06:53:45;;;;;;;7.00;3.37;;;19.20;82.40;;;;;;5029014;28;20190;-71
2023/06/18 06:56:11;;;;;;;5.90;3.57;;;19.40;81.80;;;;;;5031320;28;20283;-71
2023/06/18 06:58:36;;;;;;;9.53;3.50;;;19.50;82.00;;;;;;5030110;28;20199;-71
2023/06/18 07:01:03;;;;;;;8.30;3.23;;;19.70;79.60;;;;;;5033887;28;20222;-71
2023/06/18 07:03:29;;;;;;;8.80;3.80;;;19.90;79.50;;;;;;5028910;28;20918;-71
2023/06/18 07:05:54;;;;;;;7.17;3.60;;;20.10;77.80;;;;;;5029344;28;20178;-71
2023/06/18 07:08:20;;;;;;;5.27;2.87;;;20.30;77.30;;;;;;5029634;28;20186;-71
2023/06/18 07:10:46;;;;;;;4.10;3.00;;;20.60;75.90;;;;;;5029045;28;20243;-71
2023/06/18 07:13:12;;;;;;;8.67;2.83;;;20.70;76.80;;;;;;5031322;28;20187;-71
2023/06/18 07:15:38;;;;;;;4.67;2.60;;;20.90;75.60;;;;;;5031794;28;20179;-71
2023/06/18 07:18:03;;;;;;;3.40;2.40;;;21.10;74.80;;;;;;5031438;28;20481;-71
2023/06/18 07:20:29;;;;;;;4.30;2.57;;;21.30;74.50;;;;;;5030446;28;20196;-71
2023/06/18 07:22:55;;;;;;;4.97;3.00;;;21.60;74.90;;;;;;5030954;28;20194;-71
2023/06/18 07:25:20;;;;;;;5.67;3.07;;;21.90;75.80;;;;;;5030164;28;20269;-71
2023/06/18 07:27:46;;;;;;;6.43;3.10;;;22.30;74.10;;;;;;5029381;28;20207;-71
2023/06/18 07:30:12;;;;;;;7.20;3.77;;;22.60;72.70;;;;;;5027948;28;20221;-71
2023/06/18 07:32:38;;;;;;;9.07;3.87;;;23.20;73.70;;;;;;5026678;28;20182;-71
2023/06/18 07:35:05;;;;;;;6.10;3.00;;;23.50;70.90;;;;;;5030125;28;20490;-72
2023/06/18 07:37:31;;;;;;;6.97;3.30;;;23.70;69.60;;;;;;5030310;28;20244;-72
2023/06/18 07:39:56;;;;;;;8.40;3.50;;;24.20;67.20;;;;;;5028466;28;20859;-72
2023/06/18 07:42:22;;;;;;;6.87;3.60;;;24.70;67.00;;;;;;5025207;28;20561;-72
2023/06/18 07:44:48;;;;;;;4.53;3.23;;;25.60;67.30;;;;;;5030611;28;20194;-72
2023/06/18 07:47:13;;;;;;;6.13;3.28;;;26.50;62.00;;;;;;5027953;28;20178;-72
2023/06/18 07:49:39;;;;;;;6.63;3.45;;;27.50;60.20;;;;;;5027828;28;20530;-72
2023/06/18 07:52:06;;;;;;;9.07;3.30;;;28.20;58.10;;;;;;5037570;28;20220;-72
2023/06/18 07:54:34;;;;;;;7.10;3.35;;;28.40;56.10;;;;;;5016522;28;20202;-70
2023/06/18 07:57:00;;;;;;;6.10;3.50;;;28.80;55.70;;;;;;5029918;28;20618;-70
2023/06/18 07:59:26;;;;;;;5.10;3.20;;;29.50;54.60;;;;;;5034671;28;20204;-71
2023/06/18 08:01:52;;;;;;;4.53;2.83;;;29.30;55.70;;;;;;5028276;28;20181;-70
2023/06/18 08:04:18;;;;;;;4.43;2.65;;;28.50;56.00;;;;;;5026593;28;20210;-71
2023/06/18 08:06:46;;;;;;;7.05;3.67;;;28.80;55.10;;;;;;5027521;28;20217;-71
2023/06/18 08:09:11;;;;;;;6.03;3.13;;;29.30;53.00;;;;;;5025899;28;20858;-70
2023/06/18 08:11:37;;;;;;;7.63;4.20;;;30.00;51.60;;;;;;5028176;28;20178;-70
2023/06/18 08:14:03;;;;;;;4.53;2.58;;;29.90;51.80;;;;;;5026823;28;20190;-70
2023/06/18 08:16:29;;;;;;;7.15;3.42;;;29.10;51.60;;;;;;5025781;28;20263;-71
2023/06/18 08:18:54;;;;;;;5.80;3.60;;;29.90;51.50;;;;;;5028896;28;20654;-77
2023/06/18 08:21:21;;;;;;;4.80;2.85;;;30.10;51.10;;;;;;5030162;28;20181;-71
2023/06/18 08:23:47;;;;;;;6.93;3.42;;;30.10;49.70;;;;;;5027561;28;20170;-70
2023/06/18 08:26:13;;;;;;;5.57;3.20;;;30.30;49.30;;;;;;5028149;28;20812;-69
2023/06/18 08:28:39;;;;;;;16.67;4.13;;;30.30;48.60;;;;;;5029004;28;20437;-70
2023/06/18 08:31:04;;;;;;;7.45;3.55;;;30.40;49.50;;;;;;5030102;28;20197;-70
2023/06/18 08:33:30;;;;;;;6.53;3.17;;;30.20;49.40;;;;;;5029350;28;20182;-68
2023/06/18 08:35:56;;;;;;;5.60;3.53;;;30.20;49.50;;;;;;5029752;28;20186;-68
2023/06/18 08:38:21;;;;;;;5.70;3.15;;;30.40;49.70;;;;;;5029646;28;20224;-68
2023/06/18 08:40:55;;;;;;;5.28;3.00;;;30.30;47.90;;;;;;5030952;28;20178;-68
2023/06/18 08:43:26;;;;;;;6.63;2.80;;;29.90;48.10;;;;;;5032514;28;20277;-68
2023/06/18 08:45:52;;;;;;;5.15;3.45;;;29.90;48.20;;;;;;5030363;28;20232;-67
2023/06/18 08:48:28;;;;;;;5.10;3.38;;;30.40;49.40;;;;;;5030367;28;20186;-67
2023/06/18 08:50:59;;;;;;;4.85;3.15;;;31.10;47.90;;;;;;5029365;28;21020;-67
2023/06/18 08:53:32;;;;;;;6.50;3.35;;;31.00;47.50;;;;;;5029106;28;20832;-67
2023/06/18 08:55:58;;;;;;;4.50;3.08;;;31.00;47.30;;;;;;5027227;28;20182;-67
2023/06/18 08:58:26;;;;;;;6.00;3.45;;;31.20;46.40;;;;;;5031017;28;20220;-67
2023/06/18 09:00:53;;;;;;;5.60;3.65;;;31.00;46.50;;;;;;5024690;28;20185;-67
2023/06/18 09:03:20;;;;;;;6.55;3.40;;;31.10;47.90;;;;;;5029087;28;20182;-67
2023/06/18 09:05:45;;;;;;;4.72;2.67;;;31.00;46.80;;;;;;5013060;28;20174;-67
2023/06/18 09:08:12;;;;;;;5.85;3.22;;;30.60;47.80;;;;;;5027610;28;21254;-67
2023/06/18 09:10:38;;;;;;;10.13;4.38;;;30.60;47.80;;;;;;5026928;28;20280;-67
2023/06/18 09:13:03;;;;;;;6.68;2.95;;;30.60;47.80;;;;;;5026072;28;20265;-67
2023/06/18 09:15:29;;;;;;;4.25;2.90;;;30.60;46.90;;;;;;5028613;28;20182;-68
2023/06/18 09:17:55;;;;;;;6.20;3.47;;;30.50;46.80;;;;;;5029487;28;20202;-67
2023/06/18 09:20:21;;;;;;;4.25;2.45;;;30.80;44.00;;;;;;5032348;28;20300;-67
2023/06/18 09:22:47;;;;;;;5.90;3.30;;;30.70;44.20;;;;;;5035791;28;20293;-67
2023/06/18 09:25:21;;;;;;;6.63;3.08;;;30.50;43.90;;;;;;5031952;28;20224;-67
2023/06/18 09:27:47;;;;;;;6.18;3.10;;;29.60;45.40;;;;;;5034683;28;20175;-67
2023/06/18 09:30:20;;;;;;;5.82;3.15;;;29.40;47.60;;;;;;5035451;28;20641;-67
2023/06/18 09:32:49;;;;;;;6.53;3.67;;;29.90;45.50;;;;;;5031715;28;20293;-67
2023/06/18 09:35:18;;;;;;;6.05;4.20;;;29.60;47.40;;;;;;5032294;28;20274;-66
2023/06/18 09:37:45;;;;;;;4.60;2.50;;;28.80;47.10;;;;;;5031901;28;20236;-67
2023/06/18 09:40:18;;;;;;;4.43;2.80;;;28.90;47.60;;;;;;5030086;28;20190;-67
2023/06/18 09:42:44;;;;;;;6.05;3.42;;;28.60;47.10;;;;;;5028698;28;20185;-67
2023/06/18 09:45:11;;;;;;;4.93;2.78;;;28.70;47.90;;;;;;5029303;28;20268;-68
2023/06/18 09:47:49;;;;;;;6.05;3.17;;;29.10;48.00;;;;;;5033574;28;20497;-68
2023/06/18 09:50:16;;;;;;;6.85;3.47;;;29.00;46.40;;;;;;5025037;28;20911;-68
2023/06/18 09:52:46;;;;;;;6.53;3.47;;;29.20;46.20;;;;;;5023128;28;20182;-67
2023/06/18 09:55:28;;;;;;;4.78;2.80;;;29.80;46.70;;;;;;5030325;28;20304;-68
2023/06/18 09:57:54;;;;;;;7.38;2.92;;;30.60;44.50;;;;;;5030820;28;20237;-68
2023/06/18 10:00:20;;;;;;;4.93;2.80;;;30.60;43.50;;;;;;5032189;28;20206;-67
2023/06/18 10:02:46;;;;;;;7.50;2.83;;;30.20;45.50;;;;;;5030577;28;20181;-68
2023/06/18 10:05:11;;;;;;;5.30;3.30;;;29.50;46.20;;;;;;5029718;28;20182;-67
2023/06/18 10:07:42;;;;;;;4.85;2.78;;;29.50;45.60;;;;;;5029590;28;20631;-68
2023/06/18 10:10:15;;;;;;;6.05;2.83;;;29.50;45.80;;;;;;5030787;28;20559;-67
2023/06/18 10:12:43;;;;;;;7.70;3.38;;;29.70;46.30;;;;;;5028209;28;20194;-67
2023/06/18 10:15:11;;;;;;;4.72;3.00;;;30.10;46.30;;;;;;5038477;28;20182;-67
2023/06/18 10:17:44;;;;;;;5.88;2.92;;;29.80;44.20;;;;;;5032353;28;20190;-68
2023/06/18 10:20:13;;;;;;;7.50;3.60;;;30.30;43.40;;;;;;5024294;28;20179;-68
2023/06/18 10:22:50;;;;;;;11.40;4.32;;;30.00;43.60;;;;;;5030306;28;20646;-67
2023/06/18 10:25:16;;;;;;;7.43;3.88;;;29.90;44.10;;;;;;5029174;28;20178;-68
2023/06/18 10:27:42;;;;;;;7.97;4.03;;;29.90;44.50;;;;;;5031813;28;20177;-67
2023/06/18 10:30:08;;;;;;;5.05;3.13;;;29.70;45.00;;;;;;5031641;28;20268;-68
2023/06/18 10:32:36;;;;;;;8.73;2.78;;;29.50;44.80;;;;;;5032151;28;20757;-68
2023/06/18 10:35:09;;;;;;;4.38;2.42;;;29.50;45.10;;;;;;5030121;28;20291;-68
2023/06/18 10:37:36;;;;;;;6.93;3.40;;;29.40;45.20;;;;;;5039067;28;20212;-68
2023/06/18 10:40:03;;;;;;;9.18;3.65;;;29.00;45.00;;;;;;5029374;28;20182;-66
2023/06/18 10:42:31;;;;;;;10.95;3.13;;;29.20;44.80;;;;;;5029070;28;20627;-67
2023/06/18 10:45:00;;;;;;;4.25;2.63;;;28.60;46.10;;;;;;5031113;28;20302;-67
2023/06/18 10:47:31;;;;;;;5.97;3.25;;;28.90;45.20;;;;;;5031588;28;20281;-66
2023/06/18 10:50:03;;;;;;;5.60;2.88;;;28.70;47.70;;;;;;5031752;28;20204;-67
2023/06/18 10:52:33;;;;;;;4.35;2.78;;;28.90;45.40;;;;;;5032085;28;20200;-67
2023/06/18 10:55:11;;;;;;;5.43;2.53;;;28.90;45.60;;;;;;5031296;28;20197;-67
2023/06/18 10:57:44;;;;;;;6.97;3.88;;;29.10;46.80;;;;;;5029286;28;20201;-67
2023/06/18 11:00:15;;;;;;;4.60;2.72;;;29.30;46.10;;;;;;5031640;28;20178;-68
2023/06/18 11:02:40;;;;;;;7.13;3.67;;;29.20;45.20;;;;;;5028823;28;20178;-67
2023/06/18 11:05:06;;;;;;;9.27;2.70;;;29.30;45.40;;;;;;5030152;28;20219;-67
2023/06/18 11:07:32;;;;;;;4.55;3.25;;;29.00;46.40;;;;;;5030991;28;20261;-67
2023/06/18 11:10:04;;;;;;;5.85;3.45;;;29.20;46.70;;;;;;5030589;28;20194;-67
2023/06/18 11:12:35;;;;;;;7.15;2.92;;;29.20;46.20;;;;;;5029437;28;20174;-67
2023/06/18 11:15:03;;;;;;;8.50;3.55;;;29.40;46.50;;;;;;5026902;28;20264;-67
2023/06/18 11:17:30;;;;;;;5.22;2.63;;;29.30;46.40;;;;;;5025664;28;20210;-67
2023/06/18 11:19:57;;;;;;;4.63;2.75;;;29.30;46.60;;;;;;5024879;28;21020;-67
2023/06/18 11:22:23;;;;;;;6.75;3.33;;;29.30;47.60;;;;;;5011704;28;20189;-67
2023/06/18 11:24:49;;;;;;;6.93;3.20;;;29.30;47.10;;;;;;5028665;28;20224;-66
2023/06/18 11:27:15;;;;;;;7.60;3.00;;;29.10;45.90;;;;;;5038217;28;20281;-67
2023/06/18 11:29:41;;;;;;;3.47;2.25;;;29.40;45.10;;;;;;5030143;28;20259;-67
2023/06/18 11:32:14;;;;;;;6.13;2.65;;;29.60;45.20;;;;;;5027465;28;20280;-66
2023/06/18 11:34:41;;;;;;;5.45;3.50;;;29.70;44.00;;;;;;5025494;28;20866;-68
2023/06/18 11:37:07;;;;;;;5.25;2.75;;;29.60;44.70;;;;;;5032166;28;20186;-68
2023/06/18 11:39:34;;;;;;;6.50;2.95;;;29.60;44.70;;;;;;5038432;28;20557;-68
2023/06/18 11:42:15;;;;;;;4.40;2.80;;;29.40;44.90;;;;;;5036904;28;20255;-69
2023/06/18 11:44:58;;;;;;;3.58;2.33;;;29.40;45.30;;;;;;5040047;28;20811;-70
2023/06/18 11:47:24;;;;;;;4.70;2.47;;;29.60;44.40;;;;;;5035468;28;20189;-70
2023/06/18 11:49:51;;;;;;;5.82;3.58;;;29.80;43.90;;;;;;5039404;28;20185;-68
2023/06/18 11:52:21;;;;;;;4.70;3.20;;;29.70;45.50;;;;;;5032192;28;20182;-69
2023/06/18 11:54:48;;;;;;;4.75;2.80;;;29.60;45.10;;;;;;5029518;28;20194;-69
2023/06/18 11:57:15;;;;;;;6.85;3.65;;;29.50;44.20;;;;;;5027042;28;20576;-66
2023/06/18 11:59:42;;;;;;;4.32;2.63;;;29.70;44.70;;;;;;5030303;28;20260;-66
2023/06/18 12:02:27;;;;;;;4.90;2.92;;;29.70;43.90;;;;;;5029714;28;20182;-67
2023/06/18 12:05:01;;;;;;;4.13;2.67;;;29.90;43.90;;;;;;5029226;28;20261;-65
2023/06/18 12:07:27;;;;;;;5.25;2.70;;;30.00;42.90;;;;;;5029437;28;20457;-66
2023/06/18 12:09:55;;;;;;;6.70;2.17;;;29.70;44.00;;;;;;5029284;28;20194;-67
2023/06/18 12:12:41;;;;;;;3.92;2.17;;;29.60;43.80;;;;;;5026434;28;20192;-66
2023/06/18 12:15:24;;;;;;;3.05;2.35;;;29.80;44.30;;;;;;5028749;28;20173;-70
2023/06/18 12:17:57;;;;;;;5.25;3.03;;;30.20;42.10;;;;;;5023682;28;20208;-68
2023/06/18 12:20:25;;;;;;;5.45;2.70;;;30.30;42.20;;;;;;5029597;28;20185;-69
2023/06/18 12:22:51;;;;;;;5.47;2.45;;;30.30;43.50;;;;;;5030222;28;20618;-68
2023/06/18 12:25:21;;;;;;;3.83;2.40;;;29.80;42.80;;;;;;5027246;28;20690;-68
2023/06/18 12:27:49;;;;;;;4.95;2.35;;;29.80;44.30;;;;;;5031375;28;20205;-68
2023/06/18 12:30:14;;;;;;;5.80;3.17;;;29.90;44.80;;;;;;5029884;28;20174;-68
2023/06/18 12:32:40;;;;;;;10.82;2.33;;;29.90;44.20;;;;;;5027111;28;20189;-68
2023/06/18 12:35:14;;;;;;;8.45;2.70;;;29.90;43.80;;;;;;5027376;28;20181;-68
2023/06/18 12:37:46;;;;;;;3.45;1.80;;;30.00;42.30;;;;;;5026384;28;20522;-68
2023/06/18 12:40:19;;;;;;;4.68;2.05;;;30.00;41.80;;;;;;5027496;28;20217;-67
2023/06/18 12:42:48;;;;;;;3.05;2.20;;;29.70;42.70;;;;;;5028372;28;20189;-67
2023/06/18 12:45:15;;;;;;;5.07;2.90;;;29.60;43.50;;;;;;5027236;28;20179;-69